Time;durP1;ratioP1;P1;durP2;ratioP2;P2;SDS_P1;SDS_P2;PMS_P1;PMS_P2;Temp;Humidity;BMP_temperature;BMP_pressure;BME280_temperature;BME280_humidity;BME280_pressure;Samples;Min_cycle;Max_cycle;Signal;HPM_P1;HPM_P2
2021/12/01 00:02:15;;;;;;;2.00;1.90;;;4.50;99.90;;;;;;5112823;28;20027;-61
2021/12/01 00:04:40;;;;;;;4.45;2.72;;;4.50;99.90;;;;;;5110653;28;20015;-61
2021/12/01 00:07:08;;;;;;;1.83;1.73;;;4.50;99.90;;;;;;5112701;28;20028;-61
2021/12/01 00:09:33;;;;;;;2.08;1.98;;;4.50;99.90;;;;;;5110649;28;20382;-61
2021/12/01 00:11:59;;;;;;;4.15;2.45;;;4.50;99.90;;;;;;5112573;28;20036;-61
2021/12/01 00:14:25;;;;;;;2.30;2.10;;;4.60;99.90;;;;;;5109971;28;20019;-61
2021/12/01 00:16:51;;;;;;;2.03;1.92;;;4.60;99.90;;;;;;5098655;28;20359;-61
2021/12/01 00:19:16;;;;;;;3.22;3.00;;;4.50;99.90;;;;;;5104582;28;20509;-61
2021/12/01 00:21:42;;;;;;;2.00;1.90;;;4.60;99.90;;;;;;5112446;28;20062;-61
2021/12/01 00:24:08;;;;;;;4.72;3.45;;;4.60;99.90;;;;;;5109340;28;20695;-61
2021/12/01 00:26:33;;;;;;;3.28;2.97;;;4.60;99.90;;;;;;5099439;28;20055;-61
2021/12/01 00:28:59;;;;;;;2.10;2.00;;;4.60;99.90;;;;;;5112395;28;20024;-61
2021/12/01 00:31:25;;;;;;;4.55;3.47;;;4.50;99.90;;;;;;5096416;28;20020;-61
2021/12/01 00:33:51;;;;;;;1.95;1.88;;;4.50;99.90;;;;;;5091921;28;20028;-61
2021/12/01 00:36:17;;;;;;;4.82;3.97;;;4.50;99.90;;;;;;5091913;28;20020;-62
2021/12/01 00:38:44;;;;;;;5.75;3.83;;;4.50;99.90;;;;;;5091662;28;20416;-61
2021/12/01 00:41:11;;;;;;;2.00;1.90;;;4.50;99.90;;;;;;5091901;28;20440;-61
2021/12/01 00:43:41;;;;;;;2.60;2.40;;;4.50;99.90;;;;;;5107546;28;20020;-61
2021/12/01 00:46:56;;;;;;;2.75;2.55;;;4.50;99.90;;;;;;5111806;28;20102;-61
2021/12/01 00:48:54;;;;;;;2.15;2.05;;;4.50;99.90;;;;;;5103971;28;20503;-61
2021/12/01 00:51:20;;;;;;;2.55;2.08;;;4.50;99.90;;;;;;5110071;28;20142;-61
2021/12/01 00:53:46;;;;;;;1.92;1.88;;;4.50;99.90;;;;;;5111510;28;20047;-61
2021/12/01 00:56:12;;;;;;;2.60;2.47;;;4.50;99.90;;;;;;5111802;27;20020;-61
2021/12/01 00:58:38;;;;;;;2.47;2.38;;;4.50;99.90;;;;;;5110523;28;20034;-61
2021/12/01 01:01:03;;;;;;;2.05;1.98;;;4.50;99.90;;;;;;5111572;28;20024;-61
2021/12/01 01:03:31;;;;;;;1.90;1.80;;;4.50;99.90;;;;;;5111702;28;20020;-61
2021/12/01 01:05:57;;;;;;;1.95;1.85;;;4.50;99.90;;;;;;5111730;28;20019;-61
2021/12/01 01:08:22;;;;;;;2.10;2.00;;;4.50;99.90;;;;;;5111545;28;20019;-62
2021/12/01 01:16:23;;;;;;;11.50;4.78;;;4.40;99.90;;;;;;5111569;28;20133;-61
2021/12/01 01:18:58;;;;;;;2.00;1.90;;;4.50;99.90;;;;;;5106404;28;20050;-62
2021/12/01 01:21:26;;;;;;;2.22;2.13;;;4.40;99.90;;;;;;5090918;28;20149;-61
2021/12/01 01:23:53;;;;;;;2.40;2.30;;;4.40;99.90;;;;;;5090810;28;20023;-61
2021/12/01 01:26:21;;;;;;;3.72;3.28;;;4.40;99.90;;;;;;5094832;28;20120;-62
2021/12/01 01:28:47;;;;;;;2.08;1.80;;;4.40;99.90;;;;;;5093469;28;20052;-61
2021/12/01 01:31:14;;;;;;;2.00;2.00;;;4.50;99.90;;;;;;5102588;28;20024;-61
2021/12/01 01:33:40;;;;;;;1.92;1.83;;;4.50;99.90;;;;;;5102475;28;20034;-61
2021/12/01 01:36:07;;;;;;;1.80;1.80;;;4.50;99.90;;;;;;5095285;28;20020;-61
2021/12/01 01:38:33;;;;;;;2.53;2.33;;;4.50;99.90;;;;;;5091842;28;20027;-61
2021/12/01 01:41:04;;;;;;;2.00;1.90;;;4.50;99.90;;;;;;5091721;28;20024;-61
2021/12/01 01:43:29;;;;;;;1.90;1.80;;;4.60;99.90;;;;;;5093825;28;20058;-61
2021/12/01 01:45:57;;;;;;;1.90;1.80;;;4.50;99.90;;;;;;5099271;28;20064;-61
2021/12/01 01:48:33;;;;;;;2.10;2.00;;;4.50;99.90;;;;;;5090609;28;20051;-61
2021/12/01 01:51:02;;;;;;;4.70;3.28;;;4.60;99.90;;;;;;5110236;28;20020;-61
2021/12/01 01:53:30;;;;;;;3.85;3.00;;;4.60;99.90;;;;;;5111000;28;20498;-61
2021/12/01 01:55:58;;;;;;;2.75;2.55;;;4.50;99.90;;;;;;5110697;28;20102;-62
2021/12/01 01:58:24;;;;;;;2.15;2.05;;;4.50;99.90;;;;;;5109649;28;20028;-61
2021/12/01 02:01:06;;;;;;;2.78;2.58;;;4.60;99.90;;;;;;5110303;28;20077;-61
2021/12/01 02:03:44;;;;;;;2.10;2.00;;;4.60;99.90;;;;;;5090520;28;20089;-61
2021/12/01 02:06:11;;;;;;;2.63;2.42;;;4.60;99.90;;;;;;5090379;28;20024;-61
2021/12/01 02:08:40;;;;;;;1.92;1.83;;;4.60;99.90;;;;;;5090397;28;20067;-61
2021/12/01 02:11:10;;;;;;;2.17;2.00;;;4.60;99.90;;;;;;5090226;28;20058;-61
2021/12/01 02:13:36;;;;;;;2.03;1.92;;;4.50;99.90;;;;;;5090166;28;20497;-61
2021/12/01 02:16:04;;;;;;;2.03;1.92;;;4.50;99.90;;;;;;5090075;28;20127;-61
2021/12/01 02:18:30;;;;;;;2.00;1.90;;;4.60;99.90;;;;;;5089897;28;20530;-61
2021/12/01 02:21:02;;;;;;;3.00;2.80;;;4.60;99.90;;;;;;5090221;28;20032;-61
2021/12/01 02:23:28;;;;;;;1.80;1.80;;;4.50;99.90;;;;;;5090263;28;20020;-61
2021/12/01 02:25:54;;;;;;;2.33;2.22;;;4.60;99.90;;;;;;5090050;28;20055;-62
2021/12/01 02:28:20;;;;;;;2.00;1.90;;;4.50;99.90;;;;;;5090110;28;20056;-61
2021/12/01 02:30:46;;;;;;;2.40;2.30;;;4.50;99.90;;;;;;5089845;28;20028;-61
2021/12/01 02:33:12;;;;;;;2.20;2.10;;;4.50;99.90;;;;;;5090268;28;20016;-61
2021/12/01 02:35:38;;;;;;;2.00;1.90;;;4.50;99.90;;;;;;5090054;28;20089;-61
2021/12/01 02:38:04;;;;;;;2.10;2.00;;;4.50;99.90;;;;;;5095966;28;20454;-61
2021/12/01 02:40:33;;;;;;;2.10;2.00;;;4.50;99.90;;;;;;5110298;28;20019;-61
2021/12/01 02:42:58;;;;;;;2.33;2.22;;;4.50;99.90;;;;;;5110227;28;20382;-61
2021/12/01 02:45:24;;;;;;;4.63;2.42;;;4.50;99.90;;;;;;5108229;28;20032;-62
2021/12/01 02:47:50;;;;;;;2.25;2.15;;;4.50;99.90;;;;;;5109115;28;20047;-61
2021/12/01 02:50:16;;;;;;;1.85;1.85;;;4.50;99.90;;;;;;5097584;28;20040;-61
2021/12/01 02:52:42;;;;;;;2.25;2.15;;;4.50;99.90;;;;;;5098045;28;20059;-61
2021/12/01 02:55:10;;;;;;;2.10;2.00;;;4.50;99.90;;;;;;5099036;28;20058;-61
2021/12/01 02:57:50;;;;;;;2.40;2.30;;;4.50;99.90;;;;;;5096961;28;20024;-61
2021/12/01 03:00:18;;;;;;;2.78;2.58;;;4.40;99.90;;;;;;5110179;28;20046;-61
2021/12/01 03:02:45;;;;;;;7.65;4.28;;;4.50;99.90;;;;;;5100614;28;20496;-61
2021/12/01 03:05:11;;;;;;;5.80;3.85;;;4.40;99.90;;;;;;5088511;28;20047;-61
2021/12/01 03:07:37;;;;;;;2.40;2.20;;;4.40;99.90;;;;;;5089726;28;20474;-61
2021/12/01 03:10:05;;;;;;;2.78;2.58;;;4.40;99.90;;;;;;5089743;28;20059;-61
2021/12/01 03:12:33;;;;;;;2.40;2.20;;;4.40;99.90;;;;;;5089768;28;20382;-61
2021/12/01 03:15:00;;;;;;;3.08;2.85;;;4.40;99.90;;;;;;5100428;28;20055;-61
2021/12/01 03:17:30;;;;;;;2.25;2.15;;;4.40;99.90;;;;;;5113608;28;20050;-61
2021/12/01 03:19:56;;;;;;;4.45;2.33;;;4.40;99.90;;;;;;5113579;28;20440;-61
2021/12/01 03:22:23;;;;;;;2.28;2.17;;;4.50;99.90;;;;;;5113737;28;20096;-61
2021/12/01 03:24:49;;;;;;;5.60;4.07;;;4.50;99.90;;;;;;5113387;27;20434;-62
2021/12/01 03:27:15;;;;;;;2.65;2.45;;;4.50;99.90;;;;;;5113519;28;20028;-61
2021/12/01 03:29:41;;;;;;;2.13;2.03;;;4.50;99.90;;;;;;5113571;28;20020;-61
2021/12/01 03:32:07;;;;;;;2.63;2.42;;;4.50;99.90;;;;;;5113427;28;20038;-61
2021/12/01 03:34:37;;;;;;;3.17;2.90;;;4.50;99.90;;;;;;5113290;28;20064;-61
2021/12/01 03:37:03;;;;;;;2.80;2.60;;;4.50;99.90;;;;;;5113289;28;20028;-61
2021/12/01 03:39:29;;;;;;;2.95;2.75;;;4.60;99.90;;;;;;5113443;28;20098;-61
2021/12/01 03:41:55;;;;;;;2.58;2.45;;;4.50;99.90;;;;;;5111704;28;20023;-61
2021/12/01 03:44:21;;;;;;;1.95;1.85;;;4.50;99.90;;;;;;5112081;28;20362;-61
2021/12/01 03:46:47;;;;;;;1.95;1.85;;;4.50;99.90;;;;;;5113121;28;20462;-61
2021/12/01 03:49:12;;;;;;;2.08;1.98;;;4.50;99.90;;;;;;5113048;28;20055;-61
2021/12/01 03:51:38;;;;;;;2.55;2.35;;;4.50;99.90;;;;;;5101698;28;20212;-61
2021/12/01 03:54:04;;;;;;;2.80;2.60;;;4.50;99.90;;;;;;5091254;28;20039;-61
2021/12/01 03:56:33;;;;;;;2.00;1.90;;;4.50;99.90;;;;;;5092531;28;20020;-61
2021/12/01 03:59:00;;;;;;;2.00;1.90;;;4.50;99.90;;;;;;5097638;28;20029;-61
2021/12/01 04:01:26;;;;;;;2.78;2.50;;;4.50;99.90;;;;;;5103798;28;20024;-61
2021/12/01 04:03:51;;;;;;;2.10;2.00;;;4.50;99.90;;;;;;5092170;28;20035;-61
2021/12/01 04:06:17;;;;;;;2.30;2.10;;;4.50;99.90;;;;;;5093440;28;20557;-61
2021/12/01 04:08:43;;;;;;;3.50;3.20;;;4.60;99.90;;;;;;5095890;28;20039;-61
2021/12/01 04:11:09;;;;;;;6.10;4.30;;;4.60;99.90;;;;;;5104611;28;20107;-61
2021/12/01 04:13:35;;;;;;;2.33;2.22;;;4.50;99.90;;;;;;5093536;28;22024;-61
2021/12/01 04:16:00;;;;;;;4.97;3.63;;;4.60;99.90;;;;;;5110087;28;20516;-61
2021/12/01 04:18:26;;;;;;;2.50;2.40;;;4.60;99.90;;;;;;5110787;28;20498;-61
2021/12/01 04:20:53;;;;;;;2.20;2.10;;;4.50;99.90;;;;;;5100761;28;20032;-61
2021/12/01 04:23:19;;;;;;;10.40;4.97;;;4.60;99.90;;;;;;5112360;28;20069;-61
2021/12/01 04:25:45;;;;;;;12.25;5.30;;;4.50;99.90;;;;;;5100071;28;20459;-61
2021/12/01 04:28:11;;;;;;;35.72;11.68;;;4.50;99.90;;;;;;5091836;28;20036;-61
2021/12/01 04:30:38;;;;;;;4.10;3.67;;;4.50;99.90;;;;;;5091991;28;20482;-61
2021/12/01 04:33:04;;;;;;;3.47;3.17;;;4.40;99.90;;;;;;5091689;28;20024;-61
2021/12/01 04:35:30;;;;;;;2.45;2.35;;;4.50;99.90;;;;;;5091914;28;20019;-61
2021/12/01 04:37:57;;;;;;;2.70;2.50;;;4.50;99.90;;;;;;5103953;28;20028;-61
2021/12/01 04:40:23;;;;;;;2.85;2.58;;;4.50;99.90;;;;;;5112131;28;20120;-61
2021/12/01 04:42:49;;;;;;;2.88;2.67;;;4.50;99.90;;;;;;5111939;28;20023;-61
2021/12/01 04:45:18;;;;;;;5.65;4.00;;;4.50;99.90;;;;;;5110850;28;20508;-61
2021/12/01 04:47:55;;;;;;;7.70;4.95;;;4.50;99.90;;;;;;5111595;28;20031;-61
2021/12/01 04:50:25;;;;;;;2.95;2.83;;;4.40;99.90;;;;;;5112035;28;20019;-61
2021/12/01 04:52:53;;;;;;;2.40;2.30;;;4.50;99.90;;;;;;5111999;28;20415;-61
2021/12/01 04:55:19;;;;;;;2.30;2.20;;;4.50;99.90;;;;;;5110450;28;20031;-61
2021/12/01 04:57:47;;;;;;;3.67;2.80;;;4.50;99.90;;;;;;5111722;28;20031;-61
2021/12/01 05:00:17;;;;;;;2.47;2.30;;;4.40;99.90;;;;;;5111727;28;20062;-61
2021/12/01 05:02:43;;;;;;;2.40;2.30;;;4.50;99.90;;;;;;5111802;28;20036;-61
2021/12/01 05:05:09;;;;;;;3.90;2.83;;;4.50;99.90;;;;;;5111507;28;20034;-61
2021/12/01 05:07:34;;;;;;;2.35;2.15;;;4.40;99.90;;;;;;5111567;28;20032;-61
2021/12/01 05:10:00;;;;;;;3.38;3.17;;;4.50;99.90;;;;;;5110072;28;20496;-61
2021/12/01 05:12:26;;;;;;;10.70;6.78;;;4.40;99.90;;;;;;5111667;28;20012;-61
2021/12/01 05:14:52;;;;;;;11.90;5.55;;;4.50;99.90;;;;;;5095630;28;20035;-61
2021/12/01 05:17:20;;;;;;;23.98;10.60;;;4.50;99.90;;;;;;5091102;28;20019;-61
2021/12/01 05:19:46;;;;;;;21.02;12.70;;;4.50;99.90;;;;;;5090881;28;20028;-61
2021/12/01 05:22:11;;;;;;;9.05;6.65;;;4.50;99.90;;;;;;5091082;28;20394;-61
2021/12/01 05:24:37;;;;;;;2.58;2.40;;;4.50;99.90;;;;;;5100893;28;20106;-61
2021/12/01 05:27:04;;;;;;;4.65;3.47;;;4.50;99.90;;;;;;5099944;28;20469;-61
2021/12/01 05:29:30;;;;;;;19.10;12.60;;;4.50;99.90;;;;;;5110991;28;20022;-61
2021/12/01 05:32:20;;;;;;;8.30;5.68;;;4.50;99.90;;;;;;5093503;28;20491;-61
2021/12/01 05:34:46;;;;;;;4.03;2.65;;;4.40;99.90;;;;;;5090641;28;20027;-61
2021/12/01 05:37:12;;;;;;;3.30;3.00;;;4.40;99.90;;;;;;5090598;28;20408;-62
2021/12/01 05:39:44;;;;;;;4.32;3.90;;;4.40;99.90;;;;;;5090338;28;20100;-61
2021/12/01 05:42:12;;;;;;;45.25;28.33;;;4.40;99.90;;;;;;5089396;28;20020;-61
2021/12/01 05:44:39;;;;;;;7.43;6.70;;;4.40;99.90;;;;;;5090869;28;20020;-61
2021/12/01 05:47:04;;;;;;;4.47;3.63;;;4.40;99.90;;;;;;5088964;28;20489;-61
2021/12/01 05:49:30;;;;;;;3.22;3.00;;;4.40;99.90;;;;;;5090610;28;20024;-62
2021/12/01 05:51:56;;;;;;;5.93;2.50;;;4.40;99.90;;;;;;5089048;28;20027;-61
2021/12/01 05:54:22;;;;;;;2.33;2.17;;;4.50;99.90;;;;;;5090476;28;20391;-61
2021/12/01 05:56:47;;;;;;;2.47;2.38;;;4.60;99.90;;;;;;5090348;28;20024;-61
2021/12/01 05:59:13;;;;;;;2.80;2.60;;;4.50;99.90;;;;;;5089334;28;20043;-61
2021/12/01 06:01:39;;;;;;;3.95;3.72;;;4.50;99.90;;;;;;5090619;28;20031;-61
2021/12/01 06:04:05;;;;;;;3.90;3.60;;;4.40;99.90;;;;;;5090102;28;20060;-61
2021/12/01 06:06:30;;;;;;;3.85;3.50;;;4.30;99.90;;;;;;5090351;28;20109;-61
2021/12/01 06:08:56;;;;;;;2.80;2.60;;;4.40;99.90;;;;;;5090014;28;20031;-61
2021/12/01 06:11:22;;;;;;;2.80;2.70;;;4.50;99.90;;;;;;5090430;28;20051;-61
2021/12/01 06:13:51;;;;;;;2.70;2.55;;;4.50;99.90;;;;;;5088751;28;20069;-61
2021/12/01 06:16:21;;;;;;;2.65;2.47;;;4.50;99.90;;;;;;5088930;28;20105;-61
2021/12/01 06:18:47;;;;;;;3.30;2.85;;;4.50;99.90;;;;;;5090402;28;20047;-61
2021/12/01 06:21:13;;;;;;;3.00;2.80;;;4.40;99.90;;;;;;5110413;28;20028;-61
2021/12/01 06:23:39;;;;;;;2.88;2.67;;;4.40;99.90;;;;;;5110714;28;20065;-61
2021/12/01 06:26:05;;;;;;;2.60;2.50;;;4.40;99.90;;;;;;5110353;28;20037;-61
2021/12/01 06:28:30;;;;;;;3.20;2.95;;;4.50;99.90;;;;;;5093017;28;20085;-61
2021/12/01 06:30:56;;;;;;;3.40;3.17;;;4.40;99.90;;;;;;5089810;28;20107;-61
2021/12/01 06:33:22;;;;;;;3.50;3.30;;;4.40;99.90;;;;;;5091170;28;20024;-61
2021/12/01 06:35:49;;;;;;;3.80;3.30;;;4.40;99.90;;;;;;5105160;28;20036;-62
2021/12/01 06:38:16;;;;;;;3.78;3.50;;;4.30;99.90;;;;;;5104886;28;20093;-59
2021/12/01 06:40:42;;;;;;;3.38;3.08;;;4.30;99.90;;;;;;5104325;28;20016;-61
2021/12/01 06:43:08;;;;;;;3.97;3.67;;;4.40;99.90;;;;;;5109258;28;20035;-61
2021/12/01 06:45:34;;;;;;;5.25;3.25;;;4.30;99.90;;;;;;5089933;28;20028;-61
2021/12/01 06:48:00;;;;;;;4.85;4.43;;;4.30;99.90;;;;;;5090062;28;20024;-62
2021/12/01 06:50:25;;;;;;;5.75;5.25;;;4.30;99.90;;;;;;5091507;28;20040;-62
2021/12/01 06:52:51;;;;;;;12.50;9.80;;;4.30;99.90;;;;;;5093649;28;20084;-61
2021/12/01 06:55:17;;;;;;;22.95;18.00;;;4.30;99.90;;;;;;5092030;28;20020;-62
2021/12/01 06:57:42;;;;;;;6.10;5.57;;;4.30;99.90;;;;;;5111565;28;20051;-61
2021/12/01 07:00:11;;;;;;;3.22;3.03;;;4.30;99.90;;;;;;5114186;28;20027;-60
2021/12/01 07:02:37;;;;;;;4.30;3.90;;;4.30;99.90;;;;;;5115002;28;20051;-61
2021/12/01 07:05:03;;;;;;;4.40;3.85;;;4.40;99.90;;;;;;5109102;28;20823;-61
2021/12/01 07:07:29;;;;;;;5.35;4.88;;;4.40;99.90;;;;;;5105878;28;20102;-61
2021/12/01 07:09:55;;;;;;;5.40;4.10;;;4.40;99.90;;;;;;5113118;28;20418;-61
2021/12/01 07:12:22;;;;;;;3.33;3.10;;;4.50;99.90;;;;;;5113643;28;20012;-61
2021/12/01 07:14:48;;;;;;;3.28;3.00;;;4.50;99.90;;;;;;5113353;28;20106;-61
2021/12/01 07:17:14;;;;;;;3.53;3.33;;;4.60;99.90;;;;;;5113263;27;20519;-62
2021/12/01 07:19:40;;;;;;;3.00;2.83;;;4.60;99.90;;;;;;5112528;28;20034;-61
2021/12/01 07:22:05;;;;;;;3.42;3.15;;;4.60;99.90;;;;;;5113242;28;20047;-62
2021/12/01 07:24:31;;;;;;;3.67;3.40;;;4.60;99.90;;;;;;5113370;28;20427;-61
2021/12/01 07:26:57;;;;;;;3.30;3.00;;;4.50;99.90;;;;;;5107641;28;20082;-61
2021/12/01 07:29:24;;;;;;;2.92;2.65;;;4.60;99.90;;;;;;5102426;28;20457;-61
2021/12/01 07:31:50;;;;;;;7.38;4.10;;;4.60;99.90;;;;;;5114080;28;20020;-61
2021/12/01 07:34:16;;;;;;;2.95;2.75;;;4.60;99.90;;;;;;5097693;28;20024;-61
2021/12/01 07:36:41;;;;;;;59.65;24.48;;;4.60;99.90;;;;;;5094061;28;20016;-61
2021/12/01 07:39:07;;;;;;;4.10;3.70;;;4.60;99.90;;;;;;5092649;28;20402;-61
2021/12/01 07:41:32;;;;;;;32.38;19.20;;;4.60;99.90;;;;;;5092645;28;20101;-61
2021/12/01 07:43:58;;;;;;;25.15;14.73;;;4.50;99.90;;;;;;5092596;28;20030;-61
2021/12/01 07:46:24;;;;;;;5.10;4.35;;;4.50;99.90;;;;;;5109676;28;20023;-61
2021/12/01 07:48:50;;;;;;;7.82;6.40;;;4.50;99.90;;;;;;5112956;28;20024;-61
2021/12/01 07:51:15;;;;;;;3.80;3.45;;;4.50;99.90;;;;;;5113818;28;20088;-61
2021/12/01 07:53:42;;;;;;;3.30;3.00;;;4.50;99.90;;;;;;5113405;28;20028;-61
2021/12/01 07:56:07;;;;;;;3.58;3.28;;;4.60;99.90;;;;;;5113129;28;20020;-61
2021/12/01 07:58:33;;;;;;;3.55;3.33;;;4.70;99.90;;;;;;5112488;28;20032;-60
2021/12/01 08:00:59;;;;;;;17.83;14.70;;;4.70;99.90;;;;;;5108137;28;20027;-61
2021/12/01 08:03:25;;;;;;;13.50;12.32;;;4.70;99.90;;;;;;5100514;28;20028;-61
2021/12/01 08:05:51;;;;;;;10.23;9.23;;;4.70;99.90;;;;;;5108235;28;20024;-60
2021/12/01 08:08:17;;;;;;;8.77;7.93;;;4.70;99.90;;;;;;5111815;28;20421;-61
2021/12/01 08:10:42;;;;;;;5.43;5.03;;;4.70;99.90;;;;;;5112190;28;20371;-62
2021/12/01 08:13:09;;;;;;;7.53;6.75;;;4.80;99.90;;;;;;5112150;28;20106;-62
2021/12/01 08:15:35;;;;;;;5.60;5.13;;;4.90;99.90;;;;;;5091937;27;20024;-62
2021/12/01 08:18:01;;;;;;;3.55;3.25;;;4.90;99.90;;;;;;5091213;28;20120;-61
2021/12/01 08:20:27;;;;;;;3.35;3.05;;;5.10;99.90;;;;;;5091730;28;20024;-61
2021/12/01 08:22:54;;;;;;;3.55;3.35;;;5.20;99.90;;;;;;5107373;28;20031;-61
2021/12/01 08:25:21;;;;;;;2.95;2.75;;;5.30;99.90;;;;;;5112095;28;20419;-61
2021/12/01 08:27:47;;;;;;;3.00;2.83;;;5.40;99.90;;;;;;5111558;28;20019;-61
2021/12/01 08:30:13;;;;;;;3.20;2.90;;;5.40;99.90;;;;;;5111999;28;20382;-60
2021/12/01 08:32:45;;;;;;;3.55;3.28;;;5.40;99.90;;;;;;5111465;28;20100;-61
2021/12/01 08:35:11;;;;;;;4.63;3.75;;;5.30;99.90;;;;;;5111596;28;20032;-61
2021/12/01 08:37:37;;;;;;;18.13;8.82;;;5.30;99.90;;;;;;5111678;28;20023;-62
2021/12/01 08:40:03;;;;;;;36.90;22.02;;;5.30;99.90;;;;;;5111564;28;20157;-61
2021/12/01 08:42:29;;;;;;;13.18;8.73;;;5.10;99.90;;;;;;5099308;28;20110;-61
2021/12/01 08:44:54;;;;;;;5.47;4.97;;;5.10;99.90;;;;;;5107384;28;20173;-62
2021/12/01 08:47:23;;;;;;;10.98;3.97;;;5.10;99.90;;;;;;5107507;28;20473;-61
2021/12/01 08:49:49;;;;;;;48.40;38.25;;;5.10;99.90;;;;;;5090944;28;20016;-62
2021/12/01 08:52:14;;;;;;;11.40;9.82;;;5.10;99.90;;;;;;5090914;28;20023;-61
2021/12/01 08:54:40;;;;;;;9.63;6.65;;;5.10;99.90;;;;;;5091023;28;20025;-61
2021/12/01 08:57:06;;;;;;;5.20;4.70;;;5.10;99.90;;;;;;5106955;28;20034;-61
2021/12/01 08:59:32;;;;;;;5.22;4.72;;;5.10;99.90;;;;;;5110390;28;20378;-61
2021/12/01 09:02:00;;;;;;;9.95;5.97;;;5.10;99.90;;;;;;5106081;28;20032;-60
2021/12/01 09:04:26;;;;;;;13.15;8.05;;;5.10;99.90;;;;;;5112517;28;20044;-61
2021/12/01 09:06:52;;;;;;;8.65;6.55;;;5.10;99.90;;;;;;5098654;28;20051;-61
2021/12/01 09:09:18;;;;;;;8.82;5.40;;;5.10;99.90;;;;;;5091876;28;20478;-61
2021/12/01 09:11:50;;;;;;;6.28;4.38;;;5.20;99.90;;;;;;5103419;28;20128;-61
2021/12/01 09:14:17;;;;;;;6.65;4.43;;;5.20;99.90;;;;;;5091393;28;20027;-61
2021/12/01 09:16:44;;;;;;;81.18;22.58;;;5.30;99.90;;;;;;5097760;28;20477;-61
2021/12/01 09:22:32;;;;;;;87.65;20.98;;;5.50;99.90;;;;;;5090505;28;20023;-61
2021/12/01 09:24:58;;;;;;;32.03;10.13;;;5.60;99.90;;;;;;5092103;28;20400;-61
2021/12/01 09:27:23;;;;;;;155.88;39.42;;;5.80;99.90;;;;;;5109821;28;20046;-62
2021/12/01 09:29:54;;;;;;;86.70;26.30;;;5.90;99.90;;;;;;5103884;28;20020;-61
2021/12/01 09:32:20;;;;;;;31.42;11.18;;;6.30;99.90;;;;;;5102850;28;20123;-61
2021/12/01 09:34:46;;;;;;;26.45;10.45;;;6.50;99.90;;;;;;5097085;28;20123;-61
2021/12/01 09:37:13;;;;;;;15.30;6.90;;;6.70;99.90;;;;;;5102953;28;20049;-61
2021/12/01 09:39:39;;;;;;;3.90;3.20;;;6.90;99.90;;;;;;5098905;28;20031;-60
2021/12/01 09:42:05;;;;;;;3.80;3.20;;;7.20;99.90;;;;;;5106322;28;20019;-61
2021/12/01 09:44:31;;;;;;;6.03;5.30;;;7.30;99.90;;;;;;5111868;28;20042;-61
2021/12/01 09:46:58;;;;;;;3.53;3.20;;;7.60;99.90;;;;;;5107270;28;20031;-61
2021/12/01 09:49:24;;;;;;;13.23;9.68;;;7.80;99.90;;;;;;5100612;28;20115;-61
2021/12/01 09:51:49;;;;;;;7.30;6.15;;;8.00;99.90;;;;;;5090986;28;20107;-61
2021/12/01 09:54:15;;;;;;;2.60;2.40;;;7.90;99.90;;;;;;5094350;28;20118;-61
2021/12/01 09:56:41;;;;;;;3.08;2.50;;;7.70;99.90;;;;;;5091062;28;20028;-61
2021/12/01 09:59:08;;;;;;;3.10;2.10;;;7.70;99.90;;;;;;5092206;28;20161;-61
2021/12/01 10:01:34;;;;;;;4.88;2.20;;;7.60;99.90;;;;;;5102579;28;20051;-61
2021/12/01 10:04:00;;;;;;;2.35;2.25;;;7.60;99.90;;;;;;5089644;28;20081;-61
2021/12/01 10:06:26;;;;;;;3.88;2.90;;;7.40;99.90;;;;;;5103642;28;20031;-61
2021/12/01 10:09:07;;;;;;;2.47;1.92;;;7.20;99.90;;;;;;5111623;28;20035;-61
2021/12/01 10:11:39;;;;;;;2.60;2.40;;;7.20;99.90;;;;;;5111790;28;20032;-61
2021/12/01 10:14:19;;;;;;;2.45;2.25;;;7.60;99.90;;;;;;5100178;28;20024;-61
2021/12/01 10:16:47;;;;;;;3.05;1.95;;;9.10;99.90;;;;;;5091161;28;20043;-61
2021/12/01 10:19:15;;;;;;;2.42;2.13;;;11.00;99.90;;;;;;5109085;28;20536;-61
2021/12/01 10:21:45;;;;;;;2.45;2.25;;;12.40;99.90;;;;;;5111619;28;20414;-59
2021/12/01 10:24:16;;;;;;;2.20;2.00;;;12.70;99.90;;;;;;5112675;28;20398;-61
2021/12/01 10:26:46;;;;;;;10.20;2.40;;;12.70;99.90;;;;;;5111680;28;20555;-62
2021/12/01 10:29:21;;;;;;;2.00;1.85;;;12.40;99.90;;;;;;5094784;28;20024;-62
2021/12/01 10:31:55;;;;;;;2.03;1.85;;;12.60;99.90;;;;;;5094985;28;20028;-61
2021/12/01 10:34:23;;;;;;;1.98;1.73;;;12.50;99.90;;;;;;5095187;28;20020;-61
2021/12/01 10:37:10;;;;;;;3.00;2.70;;;12.20;99.90;;;;;;5094700;28;20081;-61
2021/12/01 10:39:38;;;;;;;2.20;2.00;;;11.60;99.90;;;;;;5094287;28;20059;-61
2021/12/01 10:42:06;;;;;;;3.28;2.20;;;11.90;99.90;;;;;;5094438;28;20024;-61
2021/12/01 10:44:34;;;;;;;2.83;1.92;;;12.00;99.90;;;;;;5094889;28;20041;-61
2021/12/01 10:47:10;;;;;;;3.17;1.92;;;12.00;99.90;;;;;;5095206;28;20024;-61
2021/12/01 10:49:39;;;;;;;2.05;1.70;;;12.50;99.90;;;;;;5104577;28;20020;-61
2021/12/01 10:52:05;;;;;;;3.80;1.70;;;13.00;99.90;;;;;;5112984;28;20122;-61
2021/12/01 10:54:31;;;;;;;1.40;1.30;;;13.30;99.10;;;;;;5106520;27;20036;-61
2021/12/01 10:57:21;;;;;;;1.50;1.40;;;12.90;99.00;;;;;;5105609;28;20027;-61
2021/12/01 10:59:52;;;;;;;1.60;1.50;;;12.60;99.80;;;;;;5113424;28;20518;-62
2021/12/01 11:02:19;;;;;;;8.73;2.15;;;13.80;98.50;;;;;;5094475;28;20509;-61
2021/12/01 11:04:51;;;;;;;2.58;1.80;;;12.80;98.20;;;;;;5094634;28;20035;-61
2021/12/01 11:07:43;;;;;;;2.60;2.40;;;12.80;99.90;;;;;;5083322;28;20032;-61
2021/12/01 11:10:20;;;;;;;4.10;2.95;;;14.00;99.00;;;;;;5082898;28;20040;-61
2021/12/01 11:12:58;;;;;;;2.53;2.15;;;15.50;95.70;;;;;;5084151;28;20157;-61
2021/12/01 11:15:29;;;;;;;1.77;1.67;;;16.70;92.50;;;;;;5082891;28;20039;-61
2021/12/01 11:17:56;;;;;;;25.85;16.35;;;16.60;89.30;;;;;;5083418;28;22718;-62
2021/12/01 11:20:46;;;;;;;23.60;16.20;;;15.20;92.10;;;;;;5083745;28;20085;-61
2021/12/01 11:23:52;;;;;;;1.92;1.83;;;13.50;95.50;;;;;;5086568;28;20634;-61
2021/12/01 11:26:23;;;;;;;3.28;2.97;;;14.20;95.00;;;;;;5082923;28;20797;-61
2021/12/01 11:28:57;;;;;;;1.95;1.70;;;15.30;94.30;;;;;;5084029;28;20032;-61
2021/12/01 11:31:28;;;;;;;2.17;1.98;;;14.90;93.50;;;;;;5084439;28;20063;-61
2021/12/01 11:33:59;;;;;;;1.73;1.48;;;15.30;92.10;;;;;;5083546;28;20463;-62
2021/12/01 11:36:28;;;;;;;1.50;1.40;;;14.40;92.80;;;;;;5082884;28;20193;-62
2021/12/01 11:38:59;;;;;;;2.85;1.92;;;13.40;93.90;;;;;;5083777;28;20473;-62
2021/12/01 11:41:27;;;;;;;2.90;2.70;;;13.10;96.00;;;;;;5083459;28;20024;-61
2021/12/01 11:43:55;;;;;;;2.25;2.10;;;12.30;97.10;;;;;;5083274;28;20099;-61
2021/12/01 11:46:21;;;;;;;1.70;1.60;;;11.90;99.30;;;;;;5081952;28;20023;-61
2021/12/01 11:48:50;;;;;;;2.42;2.00;;;11.60;99.90;;;;;;5084666;28;20055;-61
2021/12/01 11:51:29;;;;;;;2.45;2.30;;;10.80;99.90;;;;;;5083576;28;20028;-61
2021/12/01 11:54:16;;;;;;;2.55;2.05;;;10.90;99.90;;;;;;5083200;28;20363;-61
2021/12/01 11:57:02;;;;;;;2.45;2.20;;;11.80;99.90;;;;;;5083686;28;20044;-61
2021/12/01 11:59:30;;;;;;;1.90;1.80;;;11.90;99.90;;;;;;5083012;28;20405;-61
2021/12/01 12:02:15;;;;;;;1.90;1.80;;;11.70;99.90;;;;;;5084296;28;20032;-61
2021/12/01 12:04:47;;;;;;;2.50;2.30;;;11.50;99.90;;;;;;5085139;28;20336;-61
2021/12/01 12:07:22;;;;;;;7.22;2.90;;;12.20;99.90;;;;;;5084468;28;20024;-61
2021/12/01 12:10:13;;;;;;;5.45;3.95;;;13.20;99.90;;;;;;5083011;28;20024;-61
2021/12/01 12:13:00;;;;;;;1.80;1.70;;;14.70;96.30;;;;;;5083781;28;20398;-60
2021/12/01 12:15:56;;;;;;;3.47;1.52;;;16.10;92.20;;;;;;5090068;28;20059;-61
2021/12/01 12:18:38;;;;;;;2.00;1.85;;;15.00;92.10;;;;;;5077389;28;20177;-61
2021/12/01 12:21:16;;;;;;;4.78;2.20;;;13.90;94.40;;;;;;5080770;28;20054;-61
2021/12/01 12:23:45;;;;;;;1.85;1.75;;;13.90;95.10;;;;;;5079968;28;20032;-61
2021/12/01 12:26:10;;;;;;;2.88;1.70;;;13.30;96.20;;;;;;5082232;28;20721;-61
2021/12/01 12:28:38;;;;;;;2.67;2.05;;;14.00;95.50;;;;;;5082478;28;20127;-61
2021/12/01 12:31:18;;;;;;;2.00;1.70;;;15.20;93.50;;;;;;5080755;28;20040;-61
2021/12/01 12:33:52;;;;;;;2.13;1.60;;;16.20;91.40;;;;;;5084746;28;20032;-61
2021/12/01 12:36:42;;;;;;;1.90;1.80;;;17.10;88.30;;;;;;5081619;28;20422;-61
2021/12/01 12:39:10;;;;;;;1.90;1.80;;;16.50;86.20;;;;;;5084793;28;20025;-61
2021/12/01 12:41:54;;;;;;;4.15;1.83;;;15.10;89.20;;;;;;5081694;28;20043;-61
2021/12/01 12:44:46;;;;;;;1.63;1.52;;;13.70;92.60;;;;;;5081560;28;20043;-61
2021/12/01 12:47:34;;;;;;;11.70;8.00;;;13.10;95.10;;;;;;5081714;28;20077;-60
2021/12/01 12:50:22;;;;;;;2.72;2.20;;;11.70;96.60;;;;;;5083629;28;20052;-61
2021/12/01 12:56:27;;;;;;;2.22;2.03;;;11.90;99.10;;;;;;5084085;28;20038;-61
2021/12/01 12:59:16;;;;;;;2.72;2.05;;;11.80;99.80;;;;;;5085064;28;20145;-61
2021/12/01 13:01:41;;;;;;;2.80;2.60;;;11.60;99.90;;;;;;5083927;28;20051;-61
2021/12/01 13:04:07;;;;;;;2.65;2.45;;;11.20;99.90;;;;;;5085176;28;20374;-61
2021/12/01 13:06:33;;;;;;;2.63;2.42;;;10.90;99.90;;;;;;5084753;28;20106;-61
2021/12/01 13:09:17;;;;;;;2.65;2.28;;;10.50;99.90;;;;;;5091784;28;20028;-61
2021/12/01 13:11:43;;;;;;;4.80;4.38;;;10.50;99.90;;;;;;5085797;28;20430;-61
2021/12/01 13:14:09;;;;;;;2.40;2.30;;;10.30;99.90;;;;;;5083035;28;20562;-61